Time;durP1;ratioP1;P1;durP2;ratioP2;P2;SDS_P1;SDS_P2;PMS_P1;PMS_P2;Temp;Humidity;BMP_temperature;BMP_pressure;BME280_temperature;BME280_humidity;BME280_pressure;Samples;Min_cycle;Max_cycle;Signal;HPM_P1;HPM_P2
2022/11/22 00:01:44;;;;;;;18.42;9.30;;;;;;;;;;5094919;28;20380;-60
2022/11/22 00:04:09;;;;;;;22.92;10.02;;;;;;;;;;5095045;28;20357;-59
2022/11/22 00:06:35;;;;;;;14.63;6.82;;;;;;;;;;5093452;28;20016;-60
2022/11/22 00:09:00;;;;;;;14.60;8.80;;;;;;;;;;5094817;28;20019;-58
2022/11/22 00:11:25;;;;;;;16.15;7.70;;;;;;;;;;5110634;28;20166;-59
2022/11/22 00:13:51;;;;;;;15.32;9.45;;;;;;;;;;5110543;28;20039;-60
2022/11/22 00:16:16;;;;;;;13.82;8.30;;;;;;;;;;5093625;28;20024;-58
2022/11/22 00:18:42;;;;;;;14.82;7.95;;;;;;;;;;5094734;28;20411;-59
2022/11/22 00:21:07;;;;;;;14.82;8.07;;;;;;;;;;5109974;28;20032;-58
2022/11/22 00:23:33;;;;;;;16.52;8.32;;;;;;;;;;5094364;28;20014;-58
2022/11/22 00:25:59;;;;;;;12.00;6.80;;;;;;;;;;5110349;28;20077;-59
2022/11/22 00:28:24;;;;;;;12.68;5.10;;;;;;;;;;5110292;28;20012;-59
2022/11/22 00:30:49;;;;;;;11.68;6.47;;;;;;;;;;5110210;28;20020;-59
2022/11/22 00:33:15;;;;;;;14.85;8.55;;;;;;;;;;5109839;28;20028;-59
2022/11/22 00:35:40;;;;;;;13.52;9.25;;;;;;;;;;5094311;28;20008;-59
2022/11/22 00:38:06;;;;;;;9.80;5.65;;;;;;;;;;5094754;28;20026;-60
2022/11/22 00:40:31;;;;;;;14.60;8.75;;;;;;;;;;5109775;28;20055;-58
2022/11/22 00:42:56;;;;;;;10.25;7.10;;;;;;;;;;5094336;28;20016;-60
2022/11/22 00:45:22;;;;;;;16.75;7.43;;;;;;;;;;5094109;28;20410;-58
2022/11/22 00:47:50;;;;;;;15.50;7.93;;;;;;;;;;5093965;28;20019;-60
2022/11/22 00:50:15;;;;;;;15.60;7.85;;;;;;;;;;5093972;28;20205;-59
2022/11/22 00:52:41;;;;;;;13.65;8.50;;;;;;;;;;5093860;28;20149;-59
2022/11/22 00:55:06;;;;;;;16.90;8.68;;;;;;;;;;5093752;28;20012;-58
2022/11/22 00:57:32;;;;;;;14.57;7.72;;;;;;;;;;5093469;28;20040;-58
2022/11/22 00:59:57;;;;;;;14.85;9.20;;;;;;;;;;5093571;28;20035;-57
2022/11/22 01:02:22;;;;;;;16.90;8.15;;;;;;;;;;5093921;28;20054;-58
2022/11/22 01:04:48;;;;;;;16.25;6.70;;;;;;;;;;5093555;28;20059;-58
2022/11/22 01:07:13;;;;;;;13.73;8.00;;;;;;;;;;5093443;28;20023;-57
2022/11/22 01:09:38;;;;;;;16.02;9.23;;;;;;;;;;5093636;28;20038;-56
2022/11/22 01:12:04;;;;;;;14.02;8.70;;;;;;;;;;5093491;28;20023;-57
2022/11/22 01:14:29;;;;;;;10.35;5.22;;;;;;;;;;5093521;28;20504;-58
2022/11/22 01:16:55;;;;;;;8.43;5.45;;;;;;;;;;5092208;28;20024;-56
2022/11/22 01:19:20;;;;;;;12.13;7.43;;;;;;;;;;5092476;28;20039;-57
2022/11/22 01:21:46;;;;;;;13.23;7.93;;;;;;;;;;5108823;28;20465;-58
2022/11/22 01:24:11;;;;;;;12.30;6.13;;;;;;;;;;5093863;28;20012;-58
2022/11/22 01:26:36;;;;;;;14.82;8.27;;;;;;;;;;5093291;28;20016;-57
2022/11/22 01:29:02;;;;;;;11.82;6.53;;;;;;;;;;5093128;28;20506;-58
2022/11/22 01:31:28;;;;;;;9.43;4.38;;;;;;;;;;5092040;28;20016;-57
2022/11/22 01:33:54;;;;;;;13.50;8.10;;;;;;;;;;5093136;28;20095;-58
2022/11/22 01:36:19;;;;;;;16.13;10.13;;;;;;;;;;5092957;28;20020;-58
2022/11/22 01:38:45;;;;;;;14.68;8.05;;;;;;;;;;5093128;28;20012;-58
2022/11/22 01:41:10;;;;;;;14.63;7.45;;;;;;;;;;5092667;28;20035;-57
2022/11/22 01:43:35;;;;;;;10.90;7.45;;;;;;;;;;5093132;28;20016;-58
2022/11/22 01:46:17;;;;;;;12.27;7.57;;;;;;;;;;5093052;28;20152;-57
2022/11/22 01:48:42;;;;;;;10.15;6.00;;;;;;;;;;5093079;28;20048;-57
2022/11/22 01:51:28;;;;;;;11.82;6.28;;;;;;;;;;5108539;28;20059;-57
2022/11/22 01:53:53;;;;;;;;;;;;;;;;;;5091216;28;20114;-57
2022/11/22 01:56:19;;;;;;;9.15;4.40;;;;;;;;;;5091121;28;20015;-58
2022/11/22 01:58:48;;;;;;;10.07;6.38;;;;;;;;;;5092686;28;20024;-57
2022/11/22 02:01:13;;;;;;;12.90;8.63;;;;;;;;;;5092392;28;20054;-57
2022/11/22 02:03:41;;;;;;;13.13;5.10;;;;;;;;;;5108348;28;20540;-59
2022/11/22 02:06:06;;;;;;;10.57;6.82;;;;;;;;;;5092802;28;20016;-59
2022/11/22 02:08:51;;;;;;;11.10;8.10;;;;;;;;;;5092667;28;20069;-58
2022/11/22 02:11:17;;;;;;;12.68;6.35;;;;;;;;;;5108054;28;20023;-58
2022/11/22 02:13:43;;;;;;;14.18;5.90;;;;;;;;;;5108017;28;20472;-59
2022/11/22 02:16:09;;;;;;;10.40;4.32;;;;;;;;;;5108241;28;20085;-58
2022/11/22 02:18:35;;;;;;;14.75;8.13;;;;;;;;;;5092494;28;20027;-59
2022/11/22 02:21:01;;;;;;;13.23;7.05;;;;;;;;;;5092112;28;20035;-59
2022/11/22 02:23:32;;;;;;;12.15;7.70;;;;;;;;;;5092333;28;20095;-59
2022/11/22 02:25:58;;;;;;;11.90;8.43;;;;;;;;;;5107795;28;20044;-58
2022/11/22 02:28:24;;;;;;;11.05;6.10;;;;;;;;;;5092120;28;20061;-57
2022/11/22 02:30:50;;;;;;;7.82;4.10;;;;;;;;;;5091256;28;20091;-59
2022/11/22 02:33:15;;;;;;;11.45;6.03;;;;;;;;;;5092166;28;20461;-59
2022/11/22 02:35:41;;;;;;;16.00;6.20;;;;;;;;;;5107959;28;20024;-59
2022/11/22 02:38:16;;;;;;;12.15;6.97;;;;;;;;;;5092116;28;20024;-59
2022/11/22 02:41:02;;;;;;;12.50;4.50;;;;;;;;;;5092026;28;20032;-59
2022/11/22 02:43:36;;;;;;;8.93;5.43;;;;;;;;;;5090003;28;20148;-59
2022/11/22 02:46:09;;;;;;;13.77;8.35;;;;;;;;;;5107802;28;20020;-59
2022/11/22 02:48:44;;;;;;;12.60;7.43;;;;;;;;;;5092273;28;20403;-61
2022/11/22 02:51:09;;;;;;;12.85;7.70;;;;;;;;;;5092383;28;20099;-60
2022/11/22 02:53:35;;;;;;;14.70;7.63;;;;;;;;;;5107781;28;20118;-60
2022/11/22 02:56:00;;;;;;;9.05;5.65;;;;;;;;;;5107950;28;20044;-60
2022/11/22 02:58:25;;;;;;;15.45;8.00;;;;;;;;;;5092065;28;20036;-60
2022/11/22 03:00:51;;;;;;;13.95;7.80;;;;;;;;;;5091941;28;20043;-61
2022/11/22 03:03:16;;;;;;;11.00;6.10;;;;;;;;;;5107280;28;20031;-59
2022/11/22 03:05:41;;;;;;;9.23;6.07;;;;;;;;;;5091742;28;20352;-59
2022/11/22 03:08:07;;;;;;;12.00;7.20;;;;;;;;;;5092019;28;20019;-60
2022/11/22 03:10:32;;;;;;;10.68;6.00;;;;;;;;;;5107629;28;20016;-58
2022/11/22 03:12:58;;;;;;;8.38;4.47;;;;;;;;;;5091634;28;20016;-59
2022/11/22 03:15:24;;;;;;;14.15;7.75;;;;;;;;;;5092013;28;20016;-61
2022/11/22 03:17:55;;;;;;;10.65;6.15;;;;;;;;;;5091778;28;20028;-59
2022/11/22 03:20:20;;;;;;;10.00;6.90;;;;;;;;;;5107292;28;20032;-60
2022/11/22 03:22:46;;;;;;;12.35;8.50;;;;;;;;;;5091961;28;20027;-60
2022/11/22 03:25:11;;;;;;;12.27;8.05;;;;;;;;;;5107213;28;20073;-60
2022/11/22 03:27:37;;;;;;;12.70;7.55;;;;;;;;;;5091634;28;20077;-61
2022/11/22 03:30:03;;;;;;;8.20;5.78;;;;;;;;;;5091772;28;20099;-60
2022/11/22 03:32:28;;;;;;;13.88;7.63;;;;;;;;;;5107164;28;20116;-60
2022/11/22 03:34:54;;;;;;;13.70;8.07;;;;;;;;;;5107132;28;20487;-61
2022/11/22 03:37:19;;;;;;;10.25;4.63;;;;;;;;;;5091704;28;20024;-62
2022/11/22 03:39:44;;;;;;;11.88;7.18;;;;;;;;;;5107298;28;20070;-60
2022/11/22 03:42:10;;;;;;;11.32;5.25;;;;;;;;;;5092605;28;20024;-62
2022/11/22 03:44:35;;;;;;;9.77;4.60;;;;;;;;;;5095358;28;20145;-61
2022/11/22 03:47:01;;;;;;;12.43;6.07;;;;;;;;;;5110645;28;20457;-60
2022/11/22 03:49:26;;;;;;;11.23;6.38;;;;;;;;;;5110619;28;20024;-66
2022/11/22 03:51:51;;;;;;;11.80;7.35;;;;;;;;;;5095437;28;20103;-67
2022/11/22 03:54:17;;;;;;;10.60;6.43;;;;;;;;;;5095224;28;20009;-65
2022/11/22 03:56:42;;;;;;;10.30;5.95;;;;;;;;;;5094958;28;20484;-63
2022/11/22 03:59:07;;;;;;;10.23;6.57;;;;;;;;;;5094839;28;20468;-66
2022/11/22 04:01:33;;;;;;;9.68;4.68;;;;;;;;;;5110596;28;20407;-64
2022/11/22 04:03:58;;;;;;;9.88;5.85;;;;;;;;;;5094714;28;20110;-68
2022/11/22 04:06:23;;;;;;;6.60;3.83;;;;;;;;;;5094749;28;20012;-68
2022/11/22 04:08:49;;;;;;;11.13;5.70;;;;;;;;;;5095067;28;20353;-72
2022/11/22 04:11:14;;;;;;;11.82;8.13;;;;;;;;;;5094784;28;20161;-73
2022/11/22 04:16:23;;;;;;;12.32;6.65;;;;;;;;;;5094866;28;20107;-74
2022/11/22 04:18:49;;;;;;;9.70;6.72;;;;;;;;;;5094490;28;20107;-74
2022/11/22 04:21:32;;;;;;;9.02;4.82;;;;;;;;;;5110154;28;20077;-67
2022/11/22 04:26:41;;;;;;;9.85;5.85;;;;;;;;;;5094685;28;20483;-67
2022/11/22 04:29:07;;;;;;;10.73;5.22;;;;;;;;;;5094448;28;20107;-69
2022/11/22 04:34:16;;;;;;;8.98;5.05;;;;;;;;;;5094449;28;20027;-66
2022/11/22 04:36:42;;;;;;;6.50;3.75;;;;;;;;;;5110104;28;20387;-69
2022/11/22 04:39:07;;;;;;;8.63;5.47;;;;;;;;;;5093884;28;20028;-67
2022/11/22 04:41:32;;;;;;;8.70;5.57;;;;;;;;;;5093809;28;20031;-69
2022/11/22 04:46:42;;;;;;;10.10;4.63;;;;;;;;;;5093885;28;20400;-68
2022/11/22 04:49:07;;;;;;;9.77;5.70;;;;;;;;;;5093834;28;20013;-69
2022/11/22 04:54:16;;;;;;;9.73;5.60;;;;;;;;;;5093168;28;20031;-70
2022/11/22 04:56:42;;;;;;;9.25;5.05;;;;;;;;;;5093611;28;20048;-69
2022/11/22 04:59:07;;;;;;;10.45;5.88;;;;;;;;;;5093701;28;20095;-67
2022/11/22 05:01:33;;;;;;;9.55;6.30;;;;;;;;;;5093777;28;20039;-70
2022/11/22 05:03:58;;;;;;;9.82;5.10;;;;;;;;;;5093592;28;20043;-69
2022/11/22 05:06:23;;;;;;;11.55;6.18;;;;;;;;;;5093462;28;20040;-68
2022/11/22 05:08:49;;;;;;;10.07;5.72;;;;;;;;;;5108864;28;20031;-70
2022/11/22 05:11:14;;;;;;;8.13;4.63;;;;;;;;;;5093682;28;20069;-70
2022/11/22 05:13:40;;;;;;;10.65;6.47;;;;;;;;;;5093496;28;20114;-69
2022/11/22 05:16:07;;;;;;;10.23;6.82;;;;;;;;;;5108890;28;20140;-72
2022/11/22 05:18:32;;;;;;;9.52;5.88;;;;;;;;;;5108334;28;20487;-70
2022/11/22 05:20:59;;;;;;;11.10;6.32;;;;;;;;;;5093070;28;20024;-71
2022/11/22 05:26:09;;;;;;;10.65;6.05;;;;;;;;;;5093342;28;20027;-68
2022/11/22 05:28:36;;;;;;;8.68;5.68;;;;;;;;;;5092887;28;20009;-69
2022/11/22 05:31:05;;;;;;;10.20;5.93;;;;;;;;;;5108468;28;20020;-71
2022/11/22 05:33:30;;;;;;;8.55;4.65;;;;;;;;;;5093088;28;20065;-69
2022/11/22 05:35:58;;;;;;;9.10;4.85;;;;;;;;;;5092744;28;20023;-67
2022/11/22 05:38:23;;;;;;;10.90;5.45;;;;;;;;;;5093088;28;20422;-68
2022/11/22 05:40:49;;;;;;;10.18;6.72;;;;;;;;;;5092783;28;20118;-67
2022/11/22 05:43:14;;;;;;;11.85;6.85;;;;;;;;;;5092427;28;20012;-68
2022/11/22 05:45:39;;;;;;;12.70;6.80;;;;;;;;;;5092688;28;20016;-66
2022/11/22 05:48:05;;;;;;;11.90;5.82;;;;;;;;;;5092728;28;20165;-68
2022/11/22 05:50:30;;;;;;;12.30;7.70;;;;;;;;;;5092343;28;20069;-66
2022/11/22 05:52:59;;;;;;;12.73;7.20;;;;;;;;;;5092705;28;20524;-66
2022/11/22 05:55:24;;;;;;;8.32;5.32;;;;;;;;;;5092897;28;20106;-66
2022/11/22 05:57:50;;;;;;;11.30;7.47;;;;;;;;;;5092292;28;20079;-66
2022/11/22 06:00:15;;;;;;;10.95;6.63;;;;;;;;;;5092576;28;20141;-66
2022/11/22 06:02:41;;;;;;;10.43;6.07;;;;;;;;;;5092436;28;20020;-67
2022/11/22 06:05:06;;;;;;;12.55;6.72;;;;;;;;;;5091778;28;20516;-66
2022/11/22 06:07:35;;;;;;;10.60;6.35;;;;;;;;;;5092279;28;20353;-66
2022/11/22 06:10:00;;;;;;;10.95;6.60;;;;;;;;;;5107898;28;20311;-67
2022/11/22 06:12:25;;;;;;;12.98;7.60;;;;;;;;;;5092396;28;20027;-67
2022/11/22 06:14:51;;;;;;;9.80;5.43;;;;;;;;;;5092214;28;20020;-66
2022/11/22 06:17:16;;;;;;;12.93;7.47;;;;;;;;;;5091715;28;20392;-67
2022/11/22 06:19:42;;;;;;;9.02;6.03;;;;;;;;;;5091572;28;20024;-65
2022/11/22 06:22:09;;;;;;;11.10;6.40;;;;;;;;;;5091842;28;20013;-67
2022/11/22 06:24:34;;;;;;;10.27;6.47;;;;;;;;;;5091817;28;20028;-68
2022/11/22 06:27:00;;;;;;;12.48;6.05;;;;;;;;;;5091315;28;20020;-67
2022/11/22 06:29:25;;;;;;;9.82;6.13;;;;;;;;;;5091517;28;20427;-66
2022/11/22 06:31:50;;;;;;;10.95;6.85;;;;;;;;;;5107206;28;20081;-68
2022/11/22 06:34:16;;;;;;;11.15;7.18;;;;;;;;;;5090779;28;20376;-69
2022/11/22 06:36:41;;;;;;;12.88;7.78;;;;;;;;;;5106689;28;20054;-69
2022/11/22 06:39:07;;;;;;;13.45;7.80;;;;;;;;;;5090788;28;20469;-69
2022/11/22 06:41:33;;;;;;;12.77;7.63;;;;;;;;;;5090972;28;20302;-69
2022/11/22 06:44:02;;;;;;;13.77;7.38;;;;;;;;;;5106776;28;20400;-68
2022/11/22 06:46:27;;;;;;;10.05;6.55;;;;;;;;;;5091146;28;20090;-66
2022/11/22 06:48:53;;;;;;;12.00;8.18;;;;;;;;;;5091325;28;20548;-69
2022/11/22 06:51:20;;;;;;;14.55;7.47;;;;;;;;;;5106087;28;20024;-72
2022/11/22 06:53:46;;;;;;;13.00;8.63;;;;;;;;;;5091056;28;20024;-70
2022/11/22 06:56:12;;;;;;;13.07;8.48;;;;;;;;;;5090606;28;20023;-70
2022/11/22 06:58:38;;;;;;;13.25;7.32;;;;;;;;;;5090856;28;20040;-71
2022/11/22 07:01:14;;;;;;;14.93;7.90;;;;;;;;;;5090305;28;20114;-71
2022/11/22 07:03:40;;;;;;;13.38;7.63;;;;;;;;;;5106749;28;20027;-67
2022/11/22 07:06:06;;;;;;;13.80;7.35;;;;;;;;;;5107252;28;20024;-68
2022/11/22 07:08:31;;;;;;;18.13;9.02;;;;;;;;;;5090868;28;20164;-71
2022/11/22 07:11:03;;;;;;;13.73;7.22;;;;;;;;;;5090453;28;20020;-71
2022/11/22 07:13:28;;;;;;;14.98;8.55;;;;;;;;;;5090038;28;20027;-70
2022/11/22 07:15:57;;;;;;;15.20;9.05;;;;;;;;;;5106638;28;20039;-71
2022/11/22 07:18:23;;;;;;;13.70;8.25;;;;;;;;;;5094719;28;20512;-68
2022/11/22 07:20:48;;;;;;;18.65;10.23;;;;;;;;;;5094548;28;20024;-73
2022/11/22 07:23:14;;;;;;;15.73;9.20;;;;;;;;;;5094871;28;20108;-70
2022/11/22 07:25:46;;;;;;;15.85;8.63;;;;;;;;;;5094485;28;20468;-71
2022/11/22 07:28:12;;;;;;;18.02;8.60;;;;;;;;;;5094257;28;20023;-71
2022/11/22 07:30:38;;;;;;;17.15;10.50;;;;;;;;;;5094115;28;20031;-72
2022/11/22 07:33:03;;;;;;;15.32;8.95;;;;;;;;;;5092842;28;20012;-71
2022/11/22 07:35:29;;;;;;;17.70;10.38;;;;;;;;;;5095162;28;20031;-71
2022/11/22 07:37:54;;;;;;;15.73;10.30;;;;;;;;;;5094584;28;20070;-72
2022/11/22 07:40:20;;;;;;;14.60;9.35;;;;;;;;;;5094053;28;20024;-69
2022/11/22 07:42:45;;;;;;;18.17;10.43;;;;;;;;;;5094781;28;20384;-72
2022/11/22 07:45:10;;;;;;;17.00;10.05;;;;;;;;;;5094307;28;20103;-72
2022/11/22 07:47:36;;;;;;;15.23;9.60;;;;;;;;;;5093093;28;20020;-69
2022/11/22 07:50:01;;;;;;;17.42;9.35;;;;;;;;;;5094250;28;20027;-70
2022/11/22 07:52:26;;;;;;;14.02;8.40;;;;;;;;;;5109932;28;20023;-69
2022/11/22 07:54:52;;;;;;;18.45;10.45;;;;;;;;;;5094221;28;20027;-72
2022/11/22 07:57:17;;;;;;;18.67;10.48;;;;;;;;;;5094137;28;20518;-71
2022/11/22 07:59:42;;;;;;;16.27;9.70;;;;;;;;;;5092622;28;20038;-70
2022/11/22 08:02:11;;;;;;;13.85;8.18;;;;;;;;;;5094196;28;20026;-71
2022/11/22 08:04:36;;;;;;;19.73;11.18;;;;;;;;;;5109875;28;20016;-70
2022/11/22 08:07:02;;;;;;;13.82;8.30;;;;;;;;;;5094333;28;20030;-71
2022/11/22 08:09:27;;;;;;;19.45;11.00;;;;;;;;;;5110045;28;20012;-70
2022/11/22 08:11:53;;;;;;;19.75;11.52;;;;;;;;;;5094341;28;20016;-71
2022/11/22 08:14:18;;;;;;;18.58;11.30;;;;;;;;;;5094235;28;20091;-70
2022/11/22 08:16:44;;;;;;;18.60;10.93;;;;;;;;;;5092690;28;20108;-70
2022/11/22 08:19:14;;;;;;;17.85;10.63;;;;;;;;;;5092465;28;20153;-70
2022/11/22 08:21:40;;;;;;;20.05;11.45;;;;;;;;;;5094133;28;20020;-70
2022/11/22 08:24:06;;;;;;;17.25;10.18;;;;;;;;;;5094298;28;20514;-70
2022/11/22 08:26:32;;;;;;;16.88;9.30;;;;;;;;;;5094346;28;20024;-70
2022/11/22 08:28:58;;;;;;;16.75;9.95;;;;;;;;;;5093387;28;20042;-70
2022/11/22 08:31:23;;;;;;;19.50;11.20;;;;;;;;;;5109190;28;20012;-70
2022/11/22 08:33:51;;;;;;;19.80;11.23;;;;;;;;;;5094100;28;20028;-71
2022/11/22 08:36:17;;;;;;;19.25;11.02;;;;;;;;;;5094171;28;20459;-70
2022/11/22 08:38:42;;;;;;;20.27;11.15;;;;;;;;;;5094007;28;20022;-70
2022/11/22 08:41:08;;;;;;;20.23;11.63;;;;;;;;;;5093513;28;20509;-69
2022/11/22 08:43:34;;;;;;;17.40;10.70;;;;;;;;;;5093717;28;20031;-70
2022/11/22 08:46:00;;;;;;;20.88;11.38;;;;;;;;;;5093927;28;20024;-70
2022/11/22 08:48:26;;;;;;;20.40;11.38;;;;;;;;;;5094035;28;20048;-70
2022/11/22 08:50:52;;;;;;;19.90;12.10;;;;;;;;;;5093606;28;20075;-70
2022/11/22 08:53:18;;;;;;;20.25;11.35;;;;;;;;;;5093298;28;20464;-71
2022/11/22 08:55:43;;;;;;;17.88;10.65;;;;;;;;;;5093367;28;20020;-70
2022/11/22 08:58:09;;;;;;;18.48;11.55;;;;;;;;;;5091142;28;20139;-70
2022/11/22 09:00:34;;;;;;;21.00;11.45;;;;;;;;;;5093208;28;20097;-70
2022/11/22 09:02:59;;;;;;;21.20;12.27;;;;;;;;;;5093070;28;20016;-70
2022/11/22 09:05:25;;;;;;;20.25;9.63;;;;;;;;;;5092053;28;20468;-70
2022/11/22 09:07:50;;;;;;;19.33;9.63;;;;;;;;;;5093304;28;20020;-71
2022/11/22 09:10:16;;;;;;;22.20;10.77;;;;;;;;;;5093367;28;20031;-70
2022/11/22 09:12:45;;;;;;;16.90;8.82;;;;;;;;;;5093450;28;20012;-71
2022/11/22 09:15:11;;;;;;;13.07;6.80;;;;;;;;;;5092866;28;20024;-71
2022/11/22 09:17:36;;;;;;;12.60;6.50;;;;;;;;;;5093629;28;20148;-69
2022/11/22 09:20:02;;;;;;;21.00;11.68;;;;;;;;;;5108480;28;20031;-70
2022/11/22 09:22:27;;;;;;;17.40;11.27;;;;;;;;;;5091536;28;20036;-69
2022/11/22 09:24:52;;;;;;;16.20;8.77;;;;;;;;;;5092909;28;20057;-70
2022/11/22 09:27:19;;;;;;;21.77;11.02;;;;;;;;;;5092926;28;20015;-71
2022/11/22 09:29:44;;;;;;;17.25;8.98;;;;;;;;;;5093363;28;20047;-68
2022/11/22 09:32:10;;;;;;;12.55;7.68;;;;;;;;;;5108557;28;20027;-68
2022/11/22 09:34:35;;;;;;;11.57;6.70;;;;;;;;;;5093548;28;20020;-69
2022/11/22 09:37:01;;;;;;;17.33;10.30;;;;;;;;;;5108416;28;20330;-69
2022/11/22 09:39:26;;;;;;;15.60;9.18;;;;;;;;;;5090455;28;20511;-70
2022/11/22 09:42:09;;;;;;;16.48;9.27;;;;;;;;;;5092427;28;20016;-69
2022/11/22 09:44:40;;;;;;;16.60;7.97;;;;;;;;;;5092946;28;20024;-69
2022/11/22 09:47:18;;;;;;;15.95;9.43;;;;;;;;;;5092707;28;20020;-70
2022/11/22 09:50:04;;;;;;;17.40;9.73;;;;;;;;;;5092506;28;20116;-68
2022/11/22 09:52:37;;;;;;;17.75;9.77;;;;;;;;;;5087974;28;20396;-70
2022/11/22 09:55:21;;;;;;;16.55;9.50;;;;;;;;;;5091698;28;20034;-70
2022/11/22 09:58:03;;;;;;;20.10;10.50;;;;;;;;;;5107592;28;20055;-71
2022/11/22 10:00:28;;;;;;;14.98;8.50;;;;;;;;;;5090158;28;20418;-70
2022/11/22 10:03:00;;;;;;;15.75;10.05;;;;;;;;;;5107560;28;20107;-70
2022/11/22 10:05:32;;;;;;;14.27;8.13;;;;;;;;;;5090585;28;20370;-70
2022/11/22 10:08:21;;;;;;;13.85;8.85;;;;;;;;;;5107596;28;20020;-70
2022/11/22 10:10:49;;;;;;;12.88;7.53;;;;;;;;;;5088538;28;20043;-71
2022/11/22 10:13:18;;;;;;;20.20;12.15;;;;;;;;;;5107736;28;20373;-72
2022/11/22 10:15:43;;;;;;;14.57;7.85;;;;;;;;;;5090403;28;20024;-71
2022/11/22 10:18:13;;;;;;;16.20;10.55;;;;;;;;;;5107383;28;20023;-70
2022/11/22 10:20:39;;;;;;;15.23;9.85;;;;;;;;;;5091887;28;20111;-70
2022/11/22 10:23:24;;;;;;;18.67;10.70;;;;;;;;;;5091724;28;20035;-68
2022/11/22 10:25:59;;;;;;;16.05;10.63;;;;;;;;;;5091988;28;20051;-71
2022/11/22 10:28:35;;;;;;;13.77;7.90;;;;;;;;;;5091674;28;20110;-70
2022/11/22 10:31:06;;;;;;;14.57;8.68;;;;;;;;;;5106606;28;20024;-70
2022/11/22 10:33:45;;;;;;;16.42;9.02;;;;;;;;;;5107148;28;20076;-70
2022/11/22 10:36:40;;;;;;;17.77;10.23;;;;;;;;;;5091577;28;20137;-71
2022/11/22 10:39:05;;;;;;;15.18;9.57;;;;;;;;;;5053887;28;20463;-70
2022/11/22 10:41:31;;;;;;;13.10;7.70;;;;;;;;;;5107269;28;20040;-70
2022/11/22 10:44:01;;;;;;;15.73;9.65;;;;;;;;;;5107790;28;20028;-69
2022/11/22 10:46:44;;;;;;;15.68;9.32;;;;;;;;;;5107148;28;20016;-71
2022/11/22 10:49:32;;;;;;;16.60;9.38;;;;;;;;;;5107111;28;20020;-70
2022/11/22 10:52:01;;;;;;;13.82;8.95;;;;;;;;;;5073414;28;20116;-70
2022/11/22 10:54:45;;;;;;;12.63;8.43;;;;;;;;;;5110912;28;20031;-68
2022/11/22 10:57:17;;;;;;;14.23;8.57;;;;;;;;;;5094897;28;20044;-69
2022/11/22 11:00:01;;;;;;;14.60;6.35;;;;;;;;;;5095448;28;20115;-70
2022/11/22 11:02:29;;;;;;;12.60;7.93;;;;;;;;;;5095115;28;20020;-70
2022/11/22 11:04:56;;;;;;;13.45;9.27;;;;;;;;;;5095394;28;20117;-70
2022/11/22 11:07:23;;;;;;;11.73;6.70;;;;;;;;;;5095245;28;20507;-69
2022/11/22 11:09:53;;;;;;;15.65;7.53;;;;;;;;;;5110856;28;20024;-69
2022/11/22 11:12:20;;;;;;;12.38;6.55;;;;;;;;;;5110587;28;20016;-69
2022/11/22 11:14:48;;;;;;;14.82;9.52;;;;;;;;;;5095504;28;20076;-70
2022/11/22 11:17:17;;;;;;;9.10;5.97;;;;;;;;;;5110986;28;20043;-68
2022/11/22 11:19:44;;;;;;;12.38;5.82;;;;;;;;;;5094763;28;20032;-70
2022/11/22 11:22:17;;;;;;;11.50;7.35;;;;;;;;;;5095317;28;20027;-70
2022/11/22 11:24:43;;;;;;;13.23;8.43;;;;;;;;;;5111039;28;20110;-69
2022/11/22 11:27:09;;;;;;;11.82;7.75;;;;;;;;;;5095087;28;20093;-69
2022/11/22 11:30:13;;;;;;;11.70;7.22;;;;;;;;;;5095570;28;20038;-70
2022/11/22 11:32:54;;;;;;;10.02;5.68;;;;;;;;;;5072384;28;20021;-68
2022/11/22 11:35:21;;;;;;;9.60;4.80;;;;;;;;;;5055645;28;20123;-71
2022/11/22 11:37:46;;;;;;;11.15;6.53;;;;;;;;;;5085448;28;20038;-69
2022/11/22 11:40:25;;;;;;;14.05;7.85;;;;;;;;;;5094400;28;20024;-71
2022/11/22 11:43:11;;;;;;;14.18;7.10;;;;;;;;;;5110810;28;20108;-69
2022/11/22 11:45:36;;;;;;;10.63;5.82;;;;;;;;;;5109829;28;20012;-71
2022/11/22 11:48:01;;;;;;;10.18;5.95;;;;;;;;;;5094752;28;20035;-69
2022/11/22 11:50:28;;;;;;;9.85;5.72;;;;;;;;;;5110294;28;20065;-67
2022/11/22 11:53:05;;;;;;;14.50;8.38;;;;;;;;;;5094595;28;20012;-68
2022/11/22 11:55:32;;;;;;;9.75;6.05;;;;;;;;;;5095111;28;20012;-69
2022/11/22 11:57:57;;;;;;;13.65;9.25;;;;;;;;;;5094283;28;20136;-69
2022/11/22 12:00:27;;;;;;;12.38;7.18;;;;;;;;;;5094901;28;20112;-68
2022/11/22 12:02:59;;;;;;;10.93;7.95;;;;;;;;;;5093498;28;20020;-68
2022/11/22 12:05:26;;;;;;;14.13;9.05;;;;;;;;;;5094005;28;20016;-70
2022/11/22 12:07:51;;;;;;;11.00;7.13;;;;;;;;;;5094544;28;20055;-71
2022/11/22 12:10:36;;;;;;;11.93;7.32;;;;;;;;;;5094237;28;20047;-70
2022/11/22 12:13:23;;;;;;;9.82;5.90;;;;;;;;;;5109364;28;20034;-72
2022/11/22 12:15:57;;;;;;;12.15;7.15;;;;;;;;;;5094325;28;20035;-69
2022/11/22 12:18:33;;;;;;;11.60;6.63;;;;;;;;;;5094322;28;20459;-71
2022/11/22 12:20:59;;;;;;;12.10;7.28;;;;;;;;;;5093890;28;20103;-69
2022/11/22 12:23:35;;;;;;;14.02;6.80;;;;;;;;;;5094114;28;20108;-69
2022/11/22 12:26:00;;;;;;;13.75;7.47;;;;;;;;;;5094200;28;20072;-69
2022/11/22 12:28:26;;;;;;;10.77;7.05;;;;;;;;;;5109117;28;20115;-70
2022/11/22 12:30:58;;;;;;;13.93;7.88;;;;;;;;;;5093896;28;20032;-69
2022/11/22 12:33:39;;;;;;;12.57;7.95;;;;;;;;;;5093780;28;20468;-71
2022/11/22 12:36:09;;;;;;;11.07;6.28;;;;;;;;;;5109701;28;20035;-71
2022/11/22 12:38:39;;;;;;;9.68;6.28;;;;;;;;;;5109453;28;20027;-70
2022/11/22 12:41:07;;;;;;;12.63;7.15;;;;;;;;;;5093355;28;20036;-70
2022/11/22 12:43:43;;;;;;;13.52;8.43;;;;;;;;;;5093779;28;20028;-70
2022/11/22 12:46:29;;;;;;;11.27;7.53;;;;;;;;;;5093597;28;20020;-68
2022/11/22 12:48:57;;;;;;;11.63;7.45;;;;;;;;;;5091650;28;20028;-69
2022/11/22 12:51:26;;;;;;;13.05;7.53;;;;;;;;;;5093793;28;20027;-69
2022/11/22 12:53:56;;;;;;;14.18;9.38;;;;;;;;;;5093624;28;20056;-68
2022/11/22 12:56:26;;;;;;;16.25;8.98;;;;;;;;;;5092852;28;20051;-70
2022/11/22 12:58:51;;;;;;;14.77;8.38;;;;;;;;;;5109004;28;20478;-69
2022/11/22 13:01:19;;;;;;;14.98;8.98;;;;;;;;;;5107802;28;20036;-71
2022/11/22 13:04:05;;;;;;;16.98;9.05;;;;;;;;;;5093211;28;20019;-69
2022/11/22 13:06:30;;;;;;;;;;;;;;;;;;5092979;28;20400;-68
2022/11/22 13:09:04;;;;;;;14.85;8.88;;;;;;;;;;5093276;28;19904;-67
2022/11/22 13:11:51;;;;;;;14.38;8.20;;;;;;;;;;5093087;28;20028;-68
2022/11/22 13:14:22;;;;;;;15.60;8.35;;;;;;;;;;5091848;28;20095;-70
2022/11/22 13:16:49;;;;;;;15.43;9.23;;;;;;;;;;5108054;28;20073;-71
2022/11/22 13:19:15;;;;;;;13.93;9.07;;;;;;;;;;5092884;28;20418;-69
2022/11/22 13:21:47;;;;;;;16.42;8.77;;;;;;;;;;5092465;28;20027;-71
2022/11/22 13:24:36;;;;;;;16.30;9.57;;;;;;;;;;5108317;28;20088;-68
2022/11/22 13:27:11;;;;;;;13.63;8.73;;;;;;;;;;5092256;28;20024;-69
2022/11/22 13:29:38;;;;;;;14.00;9.10;;;;;;;;;;5092650;28;20065;-70
2022/11/22 13:32:07;;;;;;;11.85;6.75;;;;;;;;;;5092427;28;20020;-69
2022/11/22 13:34:35;;;;;;;13.90;9.10;;;;;;;;;;5092472;28;20477;-70
2022/11/22 13:37:20;;;;;;;14.73;9.38;;;;;;;;;;5107729;28;20052;-71
2022/11/22 13:39:47;;;;;;;15.38;9.15;;;;;;;;;;5092164;28;20028;-70
2022/11/22 13:42:16;;;;;;;14.95;9.35;;;;;;;;;;5092314;28;20031;-69
2022/11/22 13:44:56;;;;;;;14.43;9.45;;;;;;;;;;5092160;28;20043;-71
2022/11/22 13:47:22;;;;;;;13.20;8.90;;;;;;;;;;5091667;28;20055;-71
2022/11/22 13:49:48;;;;;;;13.50;8.57;;;;;;;;;;5091983;28;20052;-72
2022/11/22 13:52:14;;;;;;;16.70;9.73;;;;;;;;;;5092272;28;20012;-69
2022/11/22 13:54:39;;;;;;;13.82;6.85;;;;;;;;;;5107606;28;20115;-71
2022/11/22 13:57:24;;;;;;;16.27;9.30;;;;;;;;;;5106730;28;20165;-71
2022/11/22 14:00:08;;;;;;;15.88;9.82;;;;;;;;;;5107332;28;20542;-71
2022/11/22 14:02:33;;;;;;;15.65;9.38;;;;;;;;;;5107538;28;20028;-71
2022/11/22 14:05:00;;;;;;;14.68;7.70;;;;;;;;;;5091013;28;20048;-72
2022/11/22 14:07:36;;;;;;;16.55;8.82;;;;;;;;;;5091852;28;20020;-71
2022/11/22 14:10:03;;;;;;;15.57;9.32;;;;;;;;;;5107536;28;20077;-70
2022/11/22 14:12:37;;;;;;;15.25;8.55;;;;;;;;;;5091563;28;20038;-70
2022/11/22 14:15:26;;;;;;;17.85;10.07;;;;;;;;;;5107195;28;20354;-67
2022/11/22 14:18:06;;;;;;;19.90;10.43;;;;;;;;;;5083793;28;20040;-71
2022/11/22 14:20:59;;;;;;;13.13;8.48;;;;;;;;;;5091625;28;20115;-72
2022/11/22 14:23:33;;;;;;;16.08;9.43;;;;;;;;;;5107269;28;20024;-70
2022/11/22 14:26:03;;;;;;;17.65;11.75;;;;;;;;;;5106595;28;20070;-69
2022/11/22 14:28:46;;;;;;;14.50;7.75;;;;;;;;;;5091395;28;20060;-69
2022/11/22 14:31:28;;;;;;;15.15;9.32;;;;;;;;;;5090974;28;20064;-71
2022/11/22 14:34:12;;;;;;;16.00;9.38;;;;;;;;;;5091186;28;20020;-72
2022/11/22 14:36:37;;;;;;;15.20;8.27;;;;;;;;;;5107033;28;20042;-70
2022/11/22 14:39:23;;;;;;;16.77;10.05;;;;;;;;;;5091267;28;20008;-71
2022/11/22 14:41:48;;;;;;;17.58;10.13;;;;;;;;;;5091300;28;20138;-70
2022/11/22 14:44:18;;;;;;;15.90;10.10;;;;;;;;;;5091630;28;20028;-70
2022/11/22 14:46:46;;;;;;;15.85;9.80;;;;;;;;;;5090957;28;20024;-71
2022/11/22 14:49:37;;;;;;;15.63;9.48;;;;;;;;;;5090578;28;20087;-71
2022/11/22 14:52:04;;;;;;;17.50;10.00;;;;;;;;;;5087238;28;20514;-71
2022/11/22 14:54:36;;;;;;;17.60;9.85;;;;;;;;;;5091219;28;20024;-72
2022/11/22 14:57:04;;;;;;;14.75;8.77;;;;;;;;;;5091009;28;20068;-69